Time;durP1;ratioP1;P1;durP2;ratioP2;P2;SDS_P1;SDS_P2;PMS_P1;PMS_P2;Temp;Humidity;BMP_temperature;BMP_pressure;BME280_temperature;BME280_humidity;BME280_pressure;Samples;Min_cycle;Max_cycle;Signal;HPM_P1;HPM_P2
2023/03/13 00:01:38;;;;;;;2.53;0.90;;;18.10;27.30;;;;;;6179128;23;20212;-82
2023/03/13 00:04:04;;;;;;;2.17;0.70;;;18.20;27.40;;;;;;6228262;23;20139;-83
2023/03/13 00:06:32;;;;;;;1.00;0.45;;;18.10;27.30;;;;;;6179810;23;20135;-83
2023/03/13 00:08:59;;;;;;;2.67;0.70;;;18.10;27.40;;;;;;6228974;23;20130;-83
2023/03/13 00:11:27;;;;;;;1.88;0.60;;;18.10;27.40;;;;;;6179915;23;20257;-83
2023/03/13 00:14:03;;;;;;;1.70;0.60;;;18.10;27.40;;;;;;6178362;23;20142;-83
2023/03/13 00:16:29;;;;;;;1.02;0.80;;;18.10;27.40;;;;;;6203932;23;20142;-83
2023/03/13 00:18:55;;;;;;;1.85;0.80;;;18.10;27.40;;;;;;6206129;23;20136;-83
2023/03/13 00:21:23;;;;;;;0.70;0.45;;;18.10;27.40;;;;;;6205685;23;20173;-83
2023/03/13 00:23:49;;;;;;;1.80;0.70;;;18.10;28.00;;;;;;6229957;23;20130;-83
2023/03/13 00:26:18;;;;;;;2.40;0.70;;;18.10;27.50;;;;;;6206251;23;20265;-83
2023/03/13 00:28:48;;;;;;;1.65;0.73;;;18.10;27.50;;;;;;6181273;23;20138;-84
2023/03/13 00:31:16;;;;;;;1.63;0.60;;;18.10;27.80;;;;;;6205760;23;20142;-83
2023/03/13 00:33:47;;;;;;;0.95;0.50;;;18.10;27.50;;;;;;6181515;23;20608;-83
2023/03/13 00:36:14;;;;;;;1.42;0.60;;;18.20;27.60;;;;;;6229562;23;20134;-82
2023/03/13 00:38:43;;;;;;;1.08;0.70;;;18.10;28.10;;;;;;6205491;23;20140;-83
2023/03/13 00:41:11;;;;;;;1.98;0.60;;;18.10;27.60;;;;;;6205863;23;20177;-83
2023/03/13 00:43:38;;;;;;;2.60;0.80;;;18.10;27.60;;;;;;6180524;23;20145;-83
2023/03/13 00:46:04;;;;;;;2.00;0.70;;;18.00;27.60;;;;;;6205522;23;20205;-83
2023/03/13 00:48:30;;;;;;;0.95;0.63;;;18.10;27.60;;;;;;6180740;23;20172;-82
2023/03/13 00:50:58;;;;;;;1.88;0.60;;;18.00;27.60;;;;;;6205691;23;20134;-82
2023/03/13 00:53:24;;;;;;;2.33;0.60;;;18.00;27.60;;;;;;6168668;23;20262;-82
2023/03/13 00:55:54;;;;;;;1.20;0.70;;;18.00;27.70;;;;;;6144450;23;20155;-83
2023/03/13 00:58:22;;;;;;;1.92;0.85;;;18.00;27.60;;;;;;6144973;23;20162;-83
2023/03/13 01:00:47;;;;;;;1.73;0.60;;;17.90;27.60;;;;;;6144364;23;20227;-82
2023/03/13 01:03:14;;;;;;;1.00;0.80;;;18.00;27.70;;;;;;6144974;23;20295;-82
2023/03/13 01:05:42;;;;;;;0.98;0.80;;;18.00;27.70;;;;;;6169702;23;20226;-83
2023/03/13 01:08:08;;;;;;;1.33;0.55;;;18.00;27.70;;;;;;6120706;23;20151;-82
2023/03/13 01:10:35;;;;;;;2.60;0.60;;;18.00;27.70;;;;;;6144788;23;20147;-82
2023/03/13 01:13:03;;;;;;;1.25;0.70;;;18.00;27.70;;;;;;6169515;23;20163;-82
2023/03/13 01:15:30;;;;;;;1.73;0.70;;;18.00;27.70;;;;;;6168992;23;20207;-82
2023/03/13 01:18:01;;;;;;;3.30;0.65;;;18.00;27.70;;;;;;6143128;23;20155;-83
2023/03/13 01:20:28;;;;;;;1.60;0.80;;;18.00;27.70;;;;;;6145120;23;20163;-82
2023/03/13 01:22:54;;;;;;;1.38;0.60;;;18.00;27.80;;;;;;6144816;23;20681;-82
2023/03/13 01:25:20;;;;;;;1.05;0.65;;;18.00;27.80;;;;;;6226365;23;20146;-82
2023/03/13 01:27:45;;;;;;;0.98;0.40;;;18.00;27.80;;;;;;6186009;23;20142;-82
2023/03/13 01:30:14;;;;;;;1.00;0.60;;;18.00;27.80;;;;;;6184978;23;20133;-81
2023/03/13 01:32:42;;;;;;;1.17;0.73;;;18.00;27.80;;;;;;6186027;23;20184;-82
2023/03/13 01:35:09;;;;;;;1.27;0.60;;;18.00;27.80;;;;;;6185922;23;20164;-82
2023/03/13 01:37:34;;;;;;;0.77;0.47;;;18.00;27.80;;;;;;6185541;23;20149;-83
2023/03/13 01:40:06;;;;;;;3.13;0.63;;;18.00;27.90;;;;;;6210676;23;20184;-83
2023/03/13 01:42:52;;;;;;;1.33;0.70;;;17.90;27.80;;;;;;6262399;23;20160;-82
2023/03/13 01:45:51;;;;;;;1.13;0.60;;;18.00;27.90;;;;;;6235544;23;20137;-82
2023/03/13 01:48:17;;;;;;;1.02;0.60;;;17.90;27.80;;;;;;6235543;23;20191;-82
2023/03/13 01:50:46;;;;;;;1.63;0.50;;;17.90;27.80;;;;;;6185727;23;20477;-82
2023/03/13 01:53:11;;;;;;;1.67;0.60;;;17.90;27.80;;;;;;6204577;23;20190;-83
2023/03/13 01:55:41;;;;;;;1.15;0.57;;;17.90;27.90;;;;;;6179875;23;20482;-82
2023/03/13 01:58:09;;;;;;;1.27;0.60;;;17.90;27.90;;;;;;6229454;23;20194;-82
2023/03/13 02:00:35;;;;;;;2.83;0.60;;;17.90;27.90;;;;;;6179846;23;20229;-83
2023/03/13 02:03:09;;;;;;;1.05;0.47;;;17.90;27.90;;;;;;6179695;23;20142;-82
2023/03/13 02:05:36;;;;;;;0.88;0.60;;;17.90;27.90;;;;;;6204965;23;20173;-82
2023/03/13 02:08:24;;;;;;;1.20;0.52;;;17.90;27.90;;;;;;6204467;23;20206;-83
2023/03/13 02:10:56;;;;;;;1.10;0.65;;;17.90;27.90;;;;;;6230111;23;20130;-82
2023/03/13 02:13:22;;;;;;;2.05;0.65;;;17.90;27.90;;;;;;6180626;23;20146;-83
2023/03/13 02:15:48;;;;;;;1.98;0.85;;;17.90;28.00;;;;;;6180191;23;20149;-83
2023/03/13 02:18:15;;;;;;;4.85;0.80;;;17.90;28.00;;;;;;6180668;23;20150;-82
2023/03/13 02:20:46;;;;;;;0.70;0.57;;;17.80;27.90;;;;;;6204523;23;20177;-82
2023/03/13 02:23:35;;;;;;;1.17;0.80;;;17.90;28.00;;;;;;6205545;23;20195;-82
2023/03/13 02:26:01;;;;;;;1.33;0.60;;;17.90;28.00;;;;;;6205249;23;20134;-83
2023/03/13 02:28:32;;;;;;;1.23;0.80;;;17.90;28.00;;;;;;6204015;23;20162;-82
2023/03/13 02:31:00;;;;;;;0.60;0.50;;;17.90;28.00;;;;;;6181035;23;20153;-82
2023/03/13 02:33:26;;;;;;;0.60;0.50;;;17.80;28.00;;;;;;6178738;23;20233;-82
2023/03/13 02:35:53;;;;;;;0.88;0.50;;;17.90;28.00;;;;;;6179619;23;20142;-82
2023/03/13 02:38:23;;;;;;;0.98;0.60;;;17.90;28.10;;;;;;6229202;23;20134;-82
2023/03/13 02:40:52;;;;;;;0.55;0.40;;;17.90;28.00;;;;;;6179995;23;20174;-82
2023/03/13 02:43:24;;;;;;;2.53;0.75;;;17.80;28.00;;;;;;6229154;23;20135;-82
2023/03/13 02:46:05;;;;;;;1.13;0.52;;;17.90;28.10;;;;;;6180280;23;20142;-82
2023/03/13 02:48:33;;;;;;;0.73;0.47;;;17.80;28.10;;;;;;6204123;23;20138;-82
2023/03/13 02:51:02;;;;;;;1.77;0.60;;;17.80;28.10;;;;;;6180165;23;20149;-82
2023/03/13 02:53:29;;;;;;;1.73;0.70;;;17.80;28.10;;;;;;6179292;23;20193;-82
2023/03/13 02:55:58;;;;;;;0.55;0.50;;;17.80;28.10;;;;;;6203789;23;20156;-83
2023/03/13 02:58:37;;;;;;;2.47;0.70;;;17.80;28.10;;;;;;6179814;23;20153;-82
2023/03/13 03:01:06;;;;;;;1.02;0.60;;;17.80;28.10;;;;;;6230372;23;20217;-83
2023/03/13 03:03:34;;;;;;;0.57;0.57;;;17.80;28.10;;;;;;6180089;23;20142;-82
2023/03/13 03:06:00;;;;;;;0.90;0.50;;;17.80;28.20;;;;;;6204673;23;20191;-82
2023/03/13 03:08:27;;;;;;;1.48;0.60;;;17.80;28.10;;;;;;6204286;23;20142;-82
2023/03/13 03:10:55;;;;;;;1.95;0.57;;;17.80;28.10;;;;;;6178648;23;20142;-82
2023/03/13 03:13:22;;;;;;;1.52;0.70;;;17.80;28.20;;;;;;6179043;23;20157;-82
2023/03/13 03:15:47;;;;;;;0.95;0.60;;;17.80;28.20;;;;;;6204360;23;20146;-82
2023/03/13 03:18:14;;;;;;;2.35;0.70;;;17.80;28.20;;;;;;6179124;23;20225;-82
2023/03/13 03:20:41;;;;;;;3.17;0.47;;;17.80;28.20;;;;;;6229380;23;20180;-82
2023/03/13 03:23:08;;;;;;;3.65;0.82;;;17.80;28.20;;;;;;6204517;23;20157;-82
2023/03/13 03:25:36;;;;;;;0.98;0.70;;;17.80;28.20;;;;;;6179536;23;20150;-82
2023/03/13 03:28:03;;;;;;;1.17;0.73;;;17.90;28.30;;;;;;6203942;23;20146;-82
2023/03/13 03:30:28;;;;;;;1.73;0.73;;;17.80;28.20;;;;;;6204473;23;20200;-83
2023/03/13 03:32:56;;;;;;;0.50;0.43;;;17.80;28.20;;;;;;6229162;23;20449;-82
2023/03/13 03:35:22;;;;;;;1.00;0.60;;;17.80;28.20;;;;;;6228808;23;20184;-83
2023/03/13 03:37:48;;;;;;;0.90;0.50;;;17.80;28.20;;;;;;6179257;23;20146;-83
2023/03/13 03:40:14;;;;;;;1.27;0.70;;;17.80;28.20;;;;;;6178803;23;20172;-83
2023/03/13 03:42:39;;;;;;;1.17;0.40;;;17.80;28.20;;;;;;6203698;23;20473;-82
2023/03/13 03:45:09;;;;;;;0.77;0.50;;;17.80;28.30;;;;;;6228838;23;20127;-82
2023/03/13 03:47:34;;;;;;;2.20;0.70;;;17.70;28.30;;;;;;6204346;23;20150;-82
2023/03/13 03:50:02;;;;;;;1.92;0.73;;;17.70;28.30;;;;;;6203926;23;20440;-82
2023/03/13 03:52:28;;;;;;;0.70;0.60;;;17.80;28.30;;;;;;6209243;23;20241;-82
2023/03/13 03:54:53;;;;;;;1.15;0.50;;;17.70;28.30;;;;;;6209416;23;20137;-81
2023/03/13 03:57:19;;;;;;;0.77;0.45;;;17.70;28.30;;;;;;6208260;23;20160;-82
2023/03/13 03:59:48;;;;;;;1.70;0.60;;;17.70;28.30;;;;;;6183306;23;20169;-82
2023/03/13 04:02:14;;;;;;;2.67;0.60;;;17.70;28.30;;;;;;6233844;23;20129;-82
2023/03/13 04:04:39;;;;;;;0.88;0.63;;;17.70;28.30;;;;;;6209490;23;20137;-82
2023/03/13 04:07:05;;;;;;;1.30;0.63;;;17.70;28.30;;;;;;6260709;23;20136;-82
2023/03/13 04:09:32;;;;;;;1.42;0.60;;;17.70;28.90;;;;;;6208886;23;20134;-82
2023/03/13 04:11:58;;;;;;;1.90;0.90;;;17.70;28.40;;;;;;6233375;23;20126;-82
2023/03/13 04:14:24;;;;;;;1.80;0.73;;;17.70;28.40;;;;;;6183762;23;20545;-83
2023/03/13 04:16:50;;;;;;;1.23;0.50;;;17.70;28.40;;;;;;6209156;23;20232;-83
2023/03/13 04:19:23;;;;;;;0.60;0.60;;;17.70;28.40;;;;;;6234145;23;20264;-82
2023/03/13 04:21:49;;;;;;;1.83;1.00;;;17.70;28.40;;;;;;6234096;23;20188;-82
2023/03/13 04:24:14;;;;;;;1.48;0.57;;;17.70;28.40;;;;;;6234115;23;20129;-82
2023/03/13 04:26:43;;;;;;;2.03;0.95;;;17.70;28.40;;;;;;6183874;23;20146;-82
2023/03/13 04:29:11;;;;;;;1.05;0.52;;;17.70;28.40;;;;;;6208587;23;20480;-81
2023/03/13 04:31:37;;;;;;;1.38;0.60;;;17.70;28.40;;;;;;6183814;23;20165;-82
2023/03/13 04:34:04;;;;;;;1.60;0.70;;;17.70;28.40;;;;;;6233197;23;20137;-81
2023/03/13 04:36:29;;;;;;;1.23;0.55;;;17.70;28.40;;;;;;6183904;23;20153;-82
2023/03/13 04:39:02;;;;;;;1.00;0.60;;;17.70;28.50;;;;;;6184565;23;20165;-83
2023/03/13 04:41:32;;;;;;;1.48;0.75;;;17.60;28.50;;;;;;6208772;23;20169;-82
2023/03/13 04:43:58;;;;;;;0.95;0.70;;;17.60;28.50;;;;;;6209059;23;20569;-82
2023/03/13 04:46:28;;;;;;;1.27;0.60;;;17.60;28.50;;;;;;6208666;23;20208;-82
2023/03/13 04:48:57;;;;;;;1.58;0.77;;;17.60;28.50;;;;;;6209092;23;20148;-82
2023/03/13 04:51:24;;;;;;;0.85;0.57;;;17.70;28.60;;;;;;6208384;23;20168;-82
2023/03/13 04:53:50;;;;;;;1.15;0.60;;;17.60;28.60;;;;;;6202547;23;20190;-82
2023/03/13 04:56:21;;;;;;;1.27;0.60;;;17.60;28.60;;;;;;6179116;23;20222;-83
2023/03/13 04:58:49;;;;;;;1.17;0.70;;;17.60;28.60;;;;;;6178942;23;20205;-82
2023/03/13 05:01:15;;;;;;;0.90;0.50;;;17.60;28.60;;;;;;6203402;23;20568;-82
2023/03/13 05:03:45;;;;;;;0.93;0.60;;;17.60;28.60;;;;;;6178828;23;20149;-82
2023/03/13 05:06:11;;;;;;;1.08;0.50;;;17.60;28.60;;;;;;6230210;23;20138;-83
2023/03/13 05:08:38;;;;;;;1.73;0.60;;;17.60;28.60;;;;;;6180331;23;20169;-82
2023/03/13 05:11:07;;;;;;;1.35;0.50;;;17.60;28.60;;;;;;6181036;23;20177;-83
2023/03/13 05:13:35;;;;;;;1.05;0.45;;;17.60;28.60;;;;;;6181155;23;20210;-83
2023/03/13 05:16:00;;;;;;;1.38;0.70;;;17.60;28.60;;;;;;6180185;23;20146;-83
2023/03/13 05:18:27;;;;;;;0.90;0.60;;;17.60;28.60;;;;;;6180808;23;20229;-83
2023/03/13 05:20:53;;;;;;;0.90;0.50;;;17.60;28.60;;;;;;6179863;23;20169;-82
2023/03/13 05:23:19;;;;;;;1.77;0.60;;;17.60;28.60;;;;;;6181450;23;20142;-83
2023/03/13 05:25:47;;;;;;;2.22;0.65;;;17.60;28.60;;;;;;6205802;23;20150;-83
2023/03/13 05:28:12;;;;;;;2.55;0.60;;;17.60;28.60;;;;;;6180350;23;20138;-83
2023/03/13 05:30:38;;;;;;;0.90;0.50;;;17.50;28.60;;;;;;6205528;23;20146;-82
2023/03/13 05:33:07;;;;;;;2.40;0.60;;;17.60;28.70;;;;;;6180816;23;20142;-82
2023/03/13 05:35:33;;;;;;;2.05;0.68;;;17.60;28.70;;;;;;6205468;23;20143;-82
2023/03/13 05:37:58;;;;;;;0.80;0.50;;;17.60;28.60;;;;;;6180757;23;20142;-82
2023/03/13 05:40:25;;;;;;;0.80;0.60;;;17.60;28.70;;;;;;6205539;23;20177;-83
2023/03/13 05:42:51;;;;;;;1.00;0.70;;;17.60;28.70;;;;;;6180384;23;20142;-82
2023/03/13 05:45:18;;;;;;;0.93;0.75;;;17.50;28.70;;;;;;6180766;23;20176;-83
2023/03/13 05:47:45;;;;;;;1.38;0.63;;;17.50;28.70;;;;;;6180507;23;20152;-82
2023/03/13 05:50:17;;;;;;;0.45;0.45;;;17.60;28.80;;;;;;6205458;23;20149;-83
2023/03/13 05:52:42;;;;;;;1.58;0.43;;;17.60;28.80;;;;;;6229884;23;20668;-82
2023/03/13 05:55:08;;;;;;;0.77;0.60;;;17.60;28.80;;;;;;6180036;23;20150;-82
2023/03/13 05:57:36;;;;;;;0.55;0.47;;;17.60;28.80;;;;;;6179556;23;20150;-82
2023/03/13 06:00:04;;;;;;;1.65;0.50;;;17.50;28.70;;;;;;6180495;23;20184;-82
2023/03/13 06:02:31;;;;;;;1.30;0.60;;;17.60;28.80;;;;;;6180119;23;20162;-82
2023/03/13 06:04:57;;;;;;;1.25;0.60;;;17.50;28.70;;;;;;6204477;23;20126;-82
2023/03/13 06:07:23;;;;;;;0.65;0.50;;;17.60;28.80;;;;;;6180236;23;20138;-82
2023/03/13 06:09:49;;;;;;;0.52;0.50;;;17.50;28.70;;;;;;6229454;23;20150;-83
2023/03/13 06:12:16;;;;;;;0.98;0.50;;;17.60;28.80;;;;;;6180435;23;20165;-81
2023/03/13 06:14:42;;;;;;;0.90;0.50;;;17.60;28.80;;;;;;6205079;23;20562;-82
2023/03/13 06:17:08;;;;;;;1.17;0.65;;;17.60;28.80;;;;;;6204351;23;20137;-82
2023/03/13 06:19:34;;;;;;;0.85;0.70;;;17.60;28.80;;;;;;6180113;23;20146;-82
2023/03/13 06:22:00;;;;;;;0.60;0.60;;;17.60;28.80;;;;;;6179305;23;20181;-82
2023/03/13 06:24:28;;;;;;;2.10;0.60;;;17.60;28.80;;;;;;6178994;23;20138;-82
2023/03/13 06:26:57;;;;;;;1.05;0.50;;;17.60;28.80;;;;;;6229325;23;20550;-82
2023/03/13 06:29:23;;;;;;;0.60;0.60;;;17.60;28.80;;;;;;6179456;23;20138;-82
2023/03/13 06:31:50;;;;;;;1.17;0.60;;;17.60;28.80;;;;;;6205222;23;20146;-82
2023/03/13 06:34:16;;;;;;;1.38;0.70;;;17.60;28.80;;;;;;6204868;23;20138;-82
2023/03/13 06:36:43;;;;;;;1.33;0.75;;;17.60;28.80;;;;;;6180181;23;20146;-82
2023/03/13 06:39:13;;;;;;;0.80;0.50;;;17.60;28.80;;;;;;6228413;23;20139;-81
2023/03/13 06:41:40;;;;;;;1.30;0.63;;;17.50;28.80;;;;;;6204504;23;20174;-82
2023/03/13 06:44:08;;;;;;;1.05;0.63;;;17.60;28.80;;;;;;6179319;23;20145;-82
2023/03/13 06:46:34;;;;;;;2.40;0.60;;;17.60;28.90;;;;;;6204039;23;20139;-82
2023/03/13 06:49:03;;;;;;;1.75;0.70;;;17.60;28.80;;;;;;6204165;23;20180;-82
2023/03/13 06:51:31;;;;;;;0.98;0.50;;;17.60;28.90;;;;;;6229157;23;20569;-82
2023/03/13 06:54:00;;;;;;;1.23;0.60;;;17.60;28.90;;;;;;6204941;23;20196;-83
2023/03/13 06:56:32;;;;;;;1.48;0.60;;;17.60;28.80;;;;;;6204147;23;20135;-83
2023/03/13 06:58:57;;;;;;;1.17;0.60;;;17.60;28.90;;;;;;6205523;23;20165;-81
2023/03/13 07:01:24;;;;;;;0.75;0.60;;;17.60;29.40;;;;;;6180100;23;20487;-81
2023/03/13 07:03:50;;;;;;;0.85;0.60;;;17.60;29.10;;;;;;6205300;23;20608;-86
2023/03/13 07:06:17;;;;;;;1.95;0.60;;;17.60;28.90;;;;;;6228900;23;20130;-80
2023/03/13 07:08:45;;;;;;;1.40;0.82;;;17.60;28.90;;;;;;6180152;23;20138;-81
2023/03/13 07:11:12;;;;;;;0.77;0.60;;;17.60;28.90;;;;;;6204830;23;20158;-81
2023/03/13 07:13:41;;;;;;;1.25;0.52;;;17.60;29.00;;;;;;6229187;23;20134;-81
2023/03/13 07:16:11;;;;;;;1.00;0.60;;;17.60;29.00;;;;;;6205284;23;20138;-82
2023/03/13 07:18:40;;;;;;;0.80;0.60;;;17.60;29.00;;;;;;6205610;23;20465;-82
2023/03/13 07:21:06;;;;;;;1.95;0.60;;;17.60;28.90;;;;;;6181226;23;20251;-82
2023/03/13 07:23:36;;;;;;;1.42;0.68;;;17.60;28.90;;;;;;6179582;23;20150;-81
2023/03/13 07:26:04;;;;;;;2.25;0.63;;;17.60;28.90;;;;;;6231003;23;20130;-82
2023/03/13 07:28:31;;;;;;;0.60;0.60;;;17.60;28.90;;;;;;6204960;23;20126;-81
2023/03/13 07:31:11;;;;;;;0.80;0.52;;;17.60;28.90;;;;;;6203599;23;20141;-82
2023/03/13 07:33:38;;;;;;;1.98;0.70;;;17.60;29.00;;;;;;6179622;23;20194;-81
2023/03/13 07:36:05;;;;;;;7.80;0.88;;;17.60;29.00;;;;;;6204262;23;20161;-82
2023/03/13 07:38:33;;;;;;;6.07;0.95;;;17.60;29.00;;;;;;6178274;23;20149;-82
2023/03/13 07:40:58;;;;;;;2.60;0.70;;;17.70;29.10;;;;;;6203939;23;20178;-82
2023/03/13 07:43:30;;;;;;;6.47;0.80;;;17.80;29.20;;;;;;6204116;23;20138;-81
2023/03/13 07:46:00;;;;;;;3.35;0.60;;;17.80;29.60;;;;;;6230847;23;20130;-81
2023/03/13 07:48:31;;;;;;;2.67;0.65;;;18.00;29.10;;;;;;6201481;23;20184;-80
2023/03/13 07:51:00;;;;;;;2.40;0.70;;;18.00;29.10;;;;;;6204311;23;20149;-82
2023/03/13 07:53:29;;;;;;;1.63;0.70;;;18.00;29.20;;;;;;6204575;23;20193;-81
2023/03/13 07:55:58;;;;;;;1.60;0.40;;;18.00;29.20;;;;;;6117841;23;20162;-82
2023/03/13 07:58:34;;;;;;;1.98;0.70;;;18.00;29.40;;;;;;6141001;23;20230;-82
2023/03/13 08:01:00;;;;;;;4.55;0.85;;;18.10;29.30;;;;;;6117855;23;20261;-82
2023/03/13 08:03:33;;;;;;;2.22;0.75;;;18.10;29.30;;;;;;6139662;23;20136;-81
2023/03/13 08:06:07;;;;;;;3.35;0.60;;;18.10;29.30;;;;;;6141792;23;20147;-82
2023/03/13 08:08:47;;;;;;;2.00;0.60;;;18.00;29.50;;;;;;6138520;23;20656;-83
2023/03/13 08:11:26;;;;;;;3.20;0.60;;;18.10;29.50;;;;;;6138000;23;20158;-84
2023/03/13 08:13:52;;;;;;;3.00;0.60;;;18.10;29.60;;;;;;6117118;23;20215;-82
2023/03/13 08:16:21;;;;;;;4.78;0.70;;;18.10;29.70;;;;;;6139838;23;20178;-83
2023/03/13 08:18:55;;;;;;;4.88;0.70;;;18.10;29.80;;;;;;6140224;23;20219;-82
2023/03/13 08:21:24;;;;;;;1.05;0.60;;;18.20;29.80;;;;;;6140167;23;20249;-83
2023/03/13 08:23:55;;;;;;;4.43;0.80;;;18.10;29.70;;;;;;6116901;23;20171;-83
2023/03/13 08:26:40;;;;;;;4.18;0.60;;;18.20;29.70;;;;;;6158730;23;20149;-83
2023/03/13 08:29:12;;;;;;;2.53;0.50;;;18.10;29.80;;;;;;6175963;23;20230;-84
2023/03/13 08:31:46;;;;;;;5.05;0.65;;;18.20;29.70;;;;;;6177955;23;20545;-82
2023/03/13 08:34:12;;;;;;;1.70;0.50;;;18.20;29.70;;;;;;6179307;23;20172;-82
2023/03/13 08:36:39;;;;;;;3.72;0.55;;;18.20;29.80;;;;;;6201796;23;20147;-83
2023/03/13 08:39:11;;;;;;;3.78;0.65;;;18.20;29.90;;;;;;6172827;23;20494;-84
2023/03/13 08:41:41;;;;;;;2.38;0.65;;;18.20;30.00;;;;;;6200249;23;20181;-82
2023/03/13 08:44:12;;;;;;;5.32;0.70;;;18.30;30.00;;;;;;6175150;23;20188;-82
2023/03/13 08:46:58;;;;;;;3.65;0.63;;;18.30;30.00;;;;;;6223773;23;20128;-82
2023/03/13 08:49:25;;;;;;;2.00;0.60;;;18.30;30.10;;;;;;6204843;23;20126;-84
2023/03/13 08:51:55;;;;;;;3.90;0.63;;;18.30;30.40;;;;;;6200592;23;20154;-82
2023/03/13 08:54:27;;;;;;;2.70;0.60;;;18.30;30.50;;;;;;6224519;23;20236;-82
2023/03/13 08:56:58;;;;;;;3.03;0.70;;;18.30;30.60;;;;;;6176791;23;20604;-82
2023/03/13 08:59:29;;;;;;;3.58;0.60;;;18.30;30.80;;;;;;6200705;23;20549;-85
2023/03/13 09:03:21;;;;;;;;;;;;;;;;;;;;;
2023/03/13 09:06:01;;;;;;;4.40;0.50;;;18.20;30.90;;;;;;5987831;23;20178;-83
2023/03/13 09:09:19;;;;;;;0.95;0.50;;;18.30;31.10;;;;;;5973427;23;20232;-83
2023/03/13 09:12:03;;;;;;;2.03;0.50;;;18.30;31.10;;;;;;5903672;24;20157;-85
2023/03/13 09:14:29;;;;;;;1.27;0.40;;;18.30;31.00;;;;;;5862323;24;20157;-84
2023/03/13 09:17:00;;;;;;;3.97;0.70;;;18.40;31.30;;;;;;5864049;24;20157;-84
2023/03/13 09:19:47;;;;;;;1.38;0.45;;;18.50;31.10;;;;;;5864337;24;20153;-83
2023/03/13 09:22:29;;;;;;;1.25;0.57;;;18.50;31.30;;;;;;5866973;24;20253;-85
2023/03/13 09:24:56;;;;;;;2.35;0.50;;;18.60;31.30;;;;;;5862648;24;20211;-84
2023/03/13 09:27:40;;;;;;;2.88;0.70;;;18.60;31.00;;;;;;5882716;24;20501;-84
2023/03/13 09:30:15;;;;;;;0.88;0.50;;;18.60;31.20;;;;;;5885175;24;20643;-84
2023/03/13 09:32:42;;;;;;;2.35;0.30;;;18.60;31.30;;;;;;5906457;24;20183;-84
2023/03/13 09:35:17;;;;;;;1.20;0.50;;;18.60;31.40;;;;;;5922806;24;20160;-85
2023/03/13 09:37:46;;;;;;;3.03;0.60;;;18.60;31.40;;;;;;5961452;24;20163;-84
2023/03/13 09:40:20;;;;;;;1.67;0.40;;;18.60;31.60;;;;;;5954450;23;20613;-84
2023/03/13 09:42:58;;;;;;;2.90;0.63;;;18.50;31.60;;;;;;6082334;23;20155;-84
2023/03/13 09:45:37;;;;;;;0.95;0.50;;;18.60;32.10;;;;;;6101873;23;20149;-83
2023/03/13 09:48:06;;;;;;;2.05;0.70;;;18.70;31.80;;;;;;6089319;23;20151;-82
2023/03/13 09:50:35;;;;;;;0.40;0.40;;;18.70;32.20;;;;;;6136031;23;20154;-83
2023/03/13 09:53:13;;;;;;;2.00;0.52;;;18.70;32.20;;;;;;6145857;23;20259;-83
2023/03/13 09:55:39;;;;;;;1.30;0.50;;;18.70;32.20;;;;;;6204220;23;20286;-85
2023/03/13 09:58:15;;;;;;;1.67;0.80;;;18.60;32.30;;;;;;6184924;23;20149;-84
2023/03/13 10:04:27;;;;;;;1.48;0.55;;;18.60;33.00;;;;;;6009632;23;20160;-82
2023/03/13 10:06:58;;;;;;;2.17;0.40;;;18.70;32.60;;;;;;5971685;23;20154;-83
2023/03/13 10:09:30;;;;;;;0.63;0.30;;;18.70;33.00;;;;;;5992360;23;20154;-83
2023/03/13 10:12:02;;;;;;;1.20;0.40;;;18.70;33.10;;;;;;6015989;23;20188;-83
2023/03/13 10:14:42;;;;;;;2.15;0.47;;;18.70;33.20;;;;;;6014681;23;20249;-84
2023/03/13 10:17:28;;;;;;;1.92;0.47;;;18.70;33.40;;;;;;5997296;23;20210;-85
2023/03/13 10:20:08;;;;;;;1.27;0.45;;;18.70;33.30;;;;;;6021713;23;20154;-86
2023/03/13 10:22:37;;;;;;;0.90;0.55;;;18.70;33.50;;;;;;5994021;23;20227;-85
2023/03/13 10:25:20;;;;;;;1.00;0.60;;;18.70;33.80;;;;;;5971382;23;20150;-85
2023/03/13 10:27:49;;;;;;;2.08;0.40;;;18.70;33.60;;;;;;6018042;23;20154;-85
2023/03/13 10:30:29;;;;;;;1.67;0.50;;;18.70;34.00;;;;;;6038076;23;20165;-84
2023/03/13 10:33:19;;;;;;;1.75;0.40;;;18.70;33.80;;;;;;6075488;23;20140;-86
2023/03/13 10:35:44;;;;;;;1.05;0.50;;;18.80;33.60;;;;;;6099771;23;20177;-84
2023/03/13 10:38:20;;;;;;;1.00;0.35;;;18.70;34.00;;;;;;6076095;23;20180;-85
2023/03/13 10:40:59;;;;;;;0.95;0.40;;;18.70;33.70;;;;;;6053552;23;20243;-86
2023/03/13 10:46:49;;;;;;;2.67;0.65;;;18.70;33.70;;;;;;6096485;23;20492;-85
2023/03/13 10:49:19;;;;;;;0.80;0.38;;;18.70;33.80;;;;;;6074318;23;20156;-87
2023/03/13 10:51:56;;;;;;;1.73;0.40;;;18.70;33.40;;;;;;5987701;23;20158;-85
2023/03/13 10:54:29;;;;;;;1.17;0.30;;;18.60;33.70;;;;;;5962174;24;20296;-86
2023/03/13 10:57:30;;;;;;;1.85;0.50;;;18.60;33.80;;;;;;5960025;24;20524;-83
2023/03/13 10:59:59;;;;;;;1.45;0.57;;;18.60;33.80;;;;;;6032671;23;20159;-85
2023/03/13 11:02:32;;;;;;;0.52;0.40;;;18.60;34.10;;;;;;6103454;23;20155;-85
2023/03/13 11:04:58;;;;;;;0.75;0.40;;;18.60;33.90;;;;;;6100351;23;20136;-85
2023/03/13 11:07:37;;;;;;;0.60;0.50;;;18.60;33.80;;;;;;6100524;23;20188;-85
2023/03/13 11:10:24;;;;;;;1.40;0.30;;;18.50;34.10;;;;;;6125566;23;20531;-85
2023/03/13 11:12:51;;;;;;;0.30;0.30;;;18.60;34.30;;;;;;6100163;23;20657;-83
2023/03/13 11:15:30;;;;;;;2.00;0.40;;;18.60;34.20;;;;;;6100111;23;20539;-85
2023/03/13 11:18:05;;;;;;;0.30;0.30;;;18.70;34.00;;;;;;6124295;23;20140;-83
2023/03/13 11:20:35;;;;;;;0.60;0.40;;;18.60;33.90;;;;;;6124209;23;20187;-84
2023/03/13 11:23:20;;;;;;;0.55;0.45;;;18.60;33.70;;;;;;6101771;23;20144;-84
2023/03/13 11:26:13;;;;;;;0.45;0.30;;;18.70;34.10;;;;;;6148270;23;20147;-84
2023/03/13 11:28:55;;;;;;;0.38;0.30;;;18.80;34.10;;;;;;6162538;23;20146;-84
2023/03/13 11:31:39;;;;;;;0.88;0.40;;;18.70;33.90;;;;;;6219170;23;20138;-82
2023/03/13 11:34:14;;;;;;;0.43;0.30;;;18.70;34.00;;;;;;6197310;23;20146;-82
2023/03/13 11:37:01;;;;;;;0.52;0.40;;;18.70;33.90;;;;;;6195628;23;20542;-82
2023/03/13 11:39:42;;;;;;;0.95;0.30;;;18.70;33.90;;;;;;6220181;23;20149;-86
2023/03/13 11:42:39;;;;;;;0.28;0.25;;;18.70;33.80;;;;;;6195735;23;20153;-85
2023/03/13 11:45:21;;;;;;;0.40;0.30;;;18.70;33.90;;;;;;6245954;23;20134;-85
2023/03/13 11:47:57;;;;;;;0.30;0.20;;;18.70;33.90;;;;;;6197356;23;20561;-86
2023/03/13 11:50:35;;;;;;;2.20;0.47;;;18.70;34.10;;;;;;6220496;23;20572;-86
2023/03/13 11:53:29;;;;;;;0.50;0.30;;;18.70;34.20;;;;;;6214613;23;20200;-86
2023/03/13 11:56:17;;;;;;;0.90;0.52;;;18.70;34.10;;;;;;6215775;23;20131;-86
2023/03/13 11:59:06;;;;;;;0.40;0.25;;;18.70;34.00;;;;;;6168349;23;20249;-85
2023/03/13 12:01:36;;;;;;;2.75;0.50;;;18.70;34.20;;;;;;6194536;23;20256;-87
2023/03/13 12:04:10;;;;;;;1.00;0.40;;;18.70;34.20;;;;;;6189686;23;20134;-85
2023/03/13 12:06:49;;;;;;;1.75;0.20;;;18.70;34.20;;;;;;6191014;23;20135;-87
2023/03/13 12:09:33;;;;;;;0.17;0.17;;;18.70;34.10;;;;;;6177359;23;20150;-87
2023/03/13 12:12:03;;;;;;;0.22;0.20;;;18.70;34.10;;;;;;6193179;23;20614;-87
2023/03/13 12:14:36;;;;;;;0.50;0.40;;;18.70;34.10;;;;;;6196639;23;20141;-86
2023/03/13 12:17:09;;;;;;;0.57;0.32;;;18.70;34.10;;;;;;6201603;23;20217;-86
2023/03/13 12:19:46;;;;;;;0.68;0.28;;;18.70;34.20;;;;;;6202532;23;20161;-87
2023/03/13 12:22:25;;;;;;;0.30;0.30;;;18.70;34.10;;;;;;6175423;23;20164;-86
2023/03/13 12:25:02;;;;;;;0.50;0.30;;;18.70;34.00;;;;;;6179728;23;20150;-86
2023/03/13 12:27:39;;;;;;;0.20;0.20;;;18.70;34.30;;;;;;6217519;23;20162;-85
2023/03/13 12:30:17;;;;;;;0.40;0.30;;;18.80;34.10;;;;;;6196414;23;20210;-88
2023/03/13 12:32:50;;;;;;;0.47;0.40;;;18.70;34.30;;;;;;6198035;23;20142;-86
2023/03/13 12:35:27;;;;;;;0.32;0.30;;;18.90;34.20;;;;;;6195938;23;20135;-85
2023/03/13 12:38:09;;;;;;;0.20;0.20;;;18.80;34.00;;;;;;6175490;23;20150;-85
2023/03/13 12:41:09;;;;;;;0.93;0.50;;;18.80;34.50;;;;;;6201439;23;20177;-86
2023/03/13 12:43:38;;;;;;;0.20;0.20;;;18.80;34.20;;;;;;6223969;23;20450;-87
2023/03/13 12:46:26;;;;;;;0.30;0.30;;;18.80;34.20;;;;;;6221556;23;20134;-85
2023/03/13 12:49:17;;;;;;;0.30;0.30;;;18.80;34.20;;;;;;6138823;23;20147;-87
2023/03/13 12:55:26;;;;;;;0.77;0.30;;;18.80;34.20;;;;;;6198900;22;20583;-84
2023/03/13 12:58:16;;;;;;;0.30;0.20;;;18.70;34.20;;;;;;6161724;23;20159;-85
2023/03/13 13:00:43;;;;;;;0.20;0.20;;;18.70;34.40;;;;;;6184935;23;20680;-86
2023/03/13 13:03:19;;;;;;;0.32;0.32;;;18.70;34.40;;;;;;6136267;23;20159;-87
2023/03/13 13:06:05;;;;;;;0.20;0.20;;;18.70;34.30;;;;;;6161233;23;20149;-86
2023/03/13 13:08:36;;;;;;;0.40;0.30;;;18.70;34.30;;;;;;6136727;23;20161;-83
2023/03/13 13:11:41;;;;;;;1.23;0.20;;;18.70;34.40;;;;;;6139730;23;20150;-88
2023/03/13 13:14:39;;;;;;;0.50;0.30;;;18.80;34.40;;;;;;6167290;23;20154;-84
2023/03/13 13:20:47;;;;;;;0.43;0.28;;;18.90;34.50;;;;;;6085611;23;20210;-85
2023/03/13 13:23:37;;;;;;;0.30;0.30;;;18.90;34.30;;;;;;6089566;23;20152;-85
2023/03/13 13:26:36;;;;;;;0.32;0.30;;;18.80;34.20;;;;;;6088472;23;20231;-84